Time;durP1;ratioP1;P1;durP2;ratioP2;P2;SDS_P1;SDS_P2;PMS_P1;PMS_P2;Temp;Humidity;BMP_temperature;BMP_pressure;BME280_temperature;BME280_humidity;BME280_pressure;Samples;Min_cycle;Max_cycle;Signal;HPM_P1;HPM_P2
2022/09/30 03:02:34;;;;;;;1.63;1.40;;;19.20;46.60;;;;;;4867745;28;45977;-78
2022/09/30 03:04:59;;;;;;;2.08;1.52;;;19.20;46.70;;;;;;4869576;29;47224;-68
2022/09/30 03:07:25;;;;;;;1.88;1.40;;;19.20;46.70;;;;;;4866817;29;46155;-72
2022/09/30 03:09:57;;;;;;;1.75;1.40;;;19.20;46.60;;;;;;4894818;28;45501;-72
2022/09/30 03:12:42;;;;;;;1.73;1.30;;;19.20;46.60;;;;;;4857812;29;45333;-73
2022/09/30 03:15:40;;;;;;;1.67;1.25;;;19.20;46.60;;;;;;4859007;29;45295;-69
2022/09/30 03:18:14;;;;;;;2.10;1.50;;;19.20;46.70;;;;;;4873672;29;45329;-69
2022/09/30 03:21:21;;;;;;;1.73;1.38;;;19.20;46.60;;;;;;4876601;29;45196;-69
2022/09/30 03:24:07;;;;;;;2.10;1.20;;;19.20;46.60;;;;;;4869457;29;45257;-68
2022/09/30 03:26:51;;;;;;;1.77;1.48;;;19.20;46.60;;;;;;4873016;29;45026;-73
2022/09/30 03:29:30;;;;;;;3.30;1.60;;;19.20;46.60;;;;;;4857850;29;45244;-71
2022/09/30 03:32:08;;;;;;;1.65;1.23;;;19.20;46.60;;;;;;4873281;29;46282;-72
2022/09/30 03:34:48;;;;;;;2.25;1.60;;;19.10;46.60;;;;;;4862437;29;44977;-71
2022/09/30 03:37:29;;;;;;;1.30;1.20;;;19.10;46.60;;;;;;4873616;29;45902;-73
2022/09/30 03:40:11;;;;;;;1.80;1.50;;;19.10;46.60;;;;;;4878278;29;44897;-71
2022/09/30 03:42:44;;;;;;;1.65;1.13;;;19.10;46.60;;;;;;4871592;29;45779;-71
2022/09/30 03:45:30;;;;;;;1.77;1.40;;;19.10;46.70;;;;;;4857795;29;45621;-69
2022/09/30 03:47:57;;;;;;;1.77;1.23;;;19.10;46.70;;;;;;4874690;29;45963;-70
2022/09/30 03:50:23;;;;;;;3.15;1.50;;;19.10;46.60;;;;;;4877693;29;44964;-69
2022/09/30 03:52:49;;;;;;;2.20;1.50;;;19.10;46.60;;;;;;4874734;29;45228;-77
2022/09/30 03:55:15;;;;;;;1.55;1.30;;;19.10;46.60;;;;;;4858434;29;45715;-68
2022/09/30 03:57:43;;;;;;;2.65;1.52;;;19.10;46.60;;;;;;4860578;29;45163;-70
2022/09/30 04:00:10;;;;;;;1.45;1.25;;;19.10;46.70;;;;;;4877797;28;45584;-71
2022/09/30 04:02:36;;;;;;;1.45;1.20;;;19.10;46.70;;;;;;4874910;29;45590;-72
2022/09/30 04:05:03;;;;;;;1.10;1.00;;;19.10;46.60;;;;;;4877408;29;45725;-72
2022/09/30 04:07:28;;;;;;;1.60;1.35;;;19.10;46.60;;;;;;4862681;29;45866;-70
2022/09/30 04:09:55;;;;;;;2.55;1.60;;;19.10;46.70;;;;;;4862073;29;44822;-69
2022/09/30 04:12:20;;;;;;;1.73;1.42;;;19.10;46.70;;;;;;4880489;29;45445;-70
2022/09/30 04:14:46;;;;;;;2.33;1.58;;;19.00;46.70;;;;;;4881987;29;45261;-68
2022/09/30 04:17:11;;;;;;;1.77;1.23;;;19.10;46.70;;;;;;4876331;29;45798;-70
2022/09/30 04:19:39;;;;;;;1.50;1.23;;;19.00;46.70;;;;;;4877602;29;45138;-71
2022/09/30 04:22:05;;;;;;;1.80;1.23;;;19.00;46.70;;;;;;4875163;29;45502;-69
2022/09/30 04:24:31;;;;;;;1.50;1.33;;;19.00;46.60;;;;;;4873189;29;45489;-70
2022/09/30 04:26:56;;;;;;;1.83;1.52;;;19.00;46.60;;;;;;4878599;29;46328;-71
2022/09/30 04:29:22;;;;;;;2.70;1.40;;;19.00;46.60;;;;;;4862473;29;45574;-69
2022/09/30 04:31:47;;;;;;;1.50;1.25;;;19.00;46.70;;;;;;4879338;29;45382;-71
2022/09/30 04:34:13;;;;;;;2.10;1.50;;;19.00;46.70;;;;;;4875205;29;45283;-69
2022/09/30 04:36:39;;;;;;;1.50;1.33;;;19.00;46.70;;;;;;4876472;29;45362;-68
2022/09/30 04:39:04;;;;;;;2.10;1.40;;;19.00;46.60;;;;;;4875456;29;45050;-70
2022/09/30 04:41:31;;;;;;;1.27;1.10;;;19.00;46.70;;;;;;4878958;29;44952;-70
2022/09/30 04:43:57;;;;;;;1.80;1.20;;;19.00;46.70;;;;;;4875496;29;45010;-68
2022/09/30 04:46:22;;;;;;;1.42;1.30;;;19.00;46.80;;;;;;4860815;29;45970;-69
2022/09/30 04:48:48;;;;;;;2.75;1.33;;;18.90;46.70;;;;;;4877116;29;45369;-70
2022/09/30 04:51:14;;;;;;;1.67;1.35;;;19.00;46.70;;;;;;4874721;29;45018;-72
2022/09/30 04:53:40;;;;;;;2.08;1.50;;;18.90;46.80;;;;;;4876611;29;45021;-67
2022/09/30 04:56:06;;;;;;;1.70;1.20;;;18.90;46.70;;;;;;4870532;29;46875;-71
2022/09/30 04:58:32;;;;;;;1.58;1.20;;;19.00;46.70;;;;;;4860357;29;45551;-70
2022/09/30 05:01:08;;;;;;;1.67;1.27;;;18.90;46.70;;;;;;4878285;29;44948;-75
2022/09/30 05:03:34;;;;;;;1.33;1.10;;;18.90;46.70;;;;;;4878579;29;45290;-71
2022/09/30 05:05:59;;;;;;;1.85;1.33;;;18.90;46.80;;;;;;4878322;29;45325;-69
2022/09/30 05:08:25;;;;;;;1.23;1.13;;;18.90;46.80;;;;;;4874926;29;44918;-68
2022/09/30 05:10:58;;;;;;;1.80;1.08;;;18.90;46.80;;;;;;4878383;29;45460;-70
2022/09/30 05:13:24;;;;;;;;;;;18.90;46.80;;;;;;4877377;29;45547;-70
2022/09/30 05:15:49;;;;;;;1.25;0.98;;;18.90;46.80;;;;;;4877858;29;45716;-72
2022/09/30 05:18:15;;;;;;;1.20;1.05;;;18.90;46.80;;;;;;4875439;29;45176;-71
2022/09/30 05:20:41;;;;;;;1.65;1.27;;;18.90;46.70;;;;;;4877598;29;46362;-75
2022/09/30 05:23:06;;;;;;;1.77;1.20;;;18.90;46.70;;;;;;4875543;29;44592;-70
2022/09/30 05:25:33;;;;;;;1.52;1.05;;;18.90;46.70;;;;;;4876923;29;45164;-70
2022/09/30 05:27:59;;;;;;;1.63;1.40;;;18.90;46.80;;;;;;4880977;29;45246;-68
2022/09/30 05:30:25;;;;;;;1.55;1.27;;;18.90;46.80;;;;;;4873649;29;44997;-71
2022/09/30 05:32:50;;;;;;;1.40;1.10;;;18.90;46.80;;;;;;4878754;29;45611;-72
2022/09/30 05:35:16;;;;;;;2.13;1.42;;;18.80;46.70;;;;;;4875844;29;45208;-72
2022/09/30 05:37:42;;;;;;;2.42;1.27;;;18.90;46.80;;;;;;4874447;29;45120;-67
2022/09/30 05:40:07;;;;;;;1.63;1.42;;;18.90;46.80;;;;;;4875441;29;45427;-70
2022/09/30 05:42:34;;;;;;;1.35;1.20;;;18.80;46.70;;;;;;4874777;29;45149;-69
2022/09/30 05:45:00;;;;;;;2.00;1.45;;;18.90;46.80;;;;;;4869661;29;46000;-69
2022/09/30 05:47:26;;;;;;;1.20;1.02;;;18.90;46.80;;;;;;4875956;29;44677;-71
2022/09/30 05:49:51;;;;;;;1.10;0.90;;;18.80;46.70;;;;;;4861716;29;45174;-70
2022/09/30 05:52:17;;;;;;;2.28;1.48;;;18.80;46.80;;;;;;4877061;29;45329;-70
2022/09/30 05:54:42;;;;;;;1.70;1.27;;;18.80;46.70;;;;;;4874640;29;45554;-68
2022/09/30 05:57:08;;;;;;;2.08;1.20;;;18.80;46.70;;;;;;4876491;29;44612;-71
2022/09/30 05:59:34;;;;;;;1.20;1.10;;;18.80;46.80;;;;;;4875756;29;44961;-71
2022/09/30 06:02:00;;;;;;;3.58;1.33;;;18.80;46.80;;;;;;4875571;29;45290;-68
2022/09/30 06:04:25;;;;;;;1.35;1.10;;;18.80;46.80;;;;;;4872805;29;46078;-68
2022/09/30 06:06:51;;;;;;;1.38;1.10;;;18.80;46.70;;;;;;4881091;29;44671;-69
2022/09/30 06:09:17;;;;;;;2.67;1.35;;;18.90;46.70;;;;;;4875565;29;45291;-68
2022/09/30 06:11:42;;;;;;;1.58;1.20;;;19.00;46.70;;;;;;4878262;29;44976;-67
2022/09/30 06:14:08;;;;;;;2.92;1.20;;;19.10;46.60;;;;;;4878654;29;45846;-67
2022/09/30 06:16:33;;;;;;;1.20;1.05;;;19.20;46.40;;;;;;4873474;29;45341;-68
2022/09/30 06:18:59;;;;;;;2.08;1.10;;;19.40;46.20;;;;;;4874968;29;45465;-73
2022/09/30 06:21:24;;;;;;;1.15;1.05;;;19.50;46.00;;;;;;4877870;29;45443;-69
2022/09/30 06:23:50;;;;;;;1.38;1.05;;;19.70;45.90;;;;;;4876248;29;46156;-66
2022/09/30 06:26:15;;;;;;;1.45;1.00;;;19.80;45.70;;;;;;4874527;29;45565;-69
2022/09/30 06:28:41;;;;;;;0.75;0.75;;;20.00;45.60;;;;;;4880961;29;45220;-67
2022/09/30 06:31:07;;;;;;;1.20;0.93;;;20.10;45.40;;;;;;4872796;29;45534;-69
2022/09/30 06:33:32;;;;;;;1.40;1.02;;;20.20;45.20;;;;;;4874985;29;47185;-69
2022/09/30 06:36:01;;;;;;;1.33;1.00;;;20.40;45.20;;;;;;4861013;29;45473;-69
2022/09/30 06:38:27;;;;;;;1.23;0.88;;;20.50;45.10;;;;;;4872270;29;45443;-67
2022/09/30 06:40:53;;;;;;;1.23;0.82;;;20.60;45.00;;;;;;4858166;29;45694;-69
2022/09/30 06:43:18;;;;;;;1.30;1.08;;;20.70;45.00;;;;;;4872716;29;46001;-69
2022/09/30 06:45:45;;;;;;;2.90;0.77;;;20.70;44.80;;;;;;4876429;29;45016;-68
2022/09/30 06:48:11;;;;;;;1.20;1.10;;;20.90;44.80;;;;;;4876648;29;45230;-68
2022/09/30 06:50:38;;;;;;;1.55;1.00;;;21.00;44.80;;;;;;4873000;29;45218;-68
2022/09/30 06:53:07;;;;;;;1.00;0.80;;;21.10;44.70;;;;;;4872361;29;46144;-68
2022/09/30 06:55:33;;;;;;;1.33;0.70;;;21.20;44.60;;;;;;4882975;29;45518;-67
2022/09/30 06:57:58;;;;;;;1.52;1.00;;;21.30;44.50;;;;;;4878575;29;45496;-72
2022/09/30 07:00:24;;;;;;;1.65;1.13;;;21.40;44.40;;;;;;4873719;29;44844;-68
2022/09/30 07:02:50;;;;;;;1.27;1.02;;;21.50;44.40;;;;;;4873805;29;46514;-68
2022/09/30 07:05:16;;;;;;;2.75;1.20;;;21.60;44.30;;;;;;4881458;29;44979;-68
2022/09/30 07:07:42;;;;;;;1.27;1.00;;;21.70;44.20;;;;;;4870729;29;45430;-67
2022/09/30 07:10:08;;;;;;;1.50;0.80;;;21.80;44.70;;;;;;4877759;29;45142;-67
2022/09/30 07:12:34;;;;;;;1.02;0.80;;;21.80;44.00;;;;;;4876949;29;45495;-69
2022/09/30 07:14:59;;;;;;;1.85;0.90;;;21.90;44.00;;;;;;4879447;29;45542;-70
2022/09/30 07:17:26;;;;;;;1.63;0.70;;;21.90;43.90;;;;;;4869595;29;44995;-73
2022/09/30 07:19:51;;;;;;;1.00;0.77;;;22.10;43.90;;;;;;4873568;29;45346;-68
2022/09/30 07:22:28;;;;;;;1.15;1.05;;;22.10;43.80;;;;;;4872369;29;46128;-68
2022/09/30 07:24:55;;;;;;;0.82;0.80;;;22.20;43.80;;;;;;4860581;29;45325;-69
2022/09/30 07:27:20;;;;;;;1.02;0.80;;;22.30;43.70;;;;;;4868572;29;45464;-69
2022/09/30 07:29:46;;;;;;;0.70;0.70;;;22.30;43.60;;;;;;4879620;29;45441;-68
2022/09/30 07:32:12;;;;;;;1.15;0.75;;;22.40;43.50;;;;;;4871228;29;46836;-70
2022/09/30 07:34:41;;;;;;;0.63;0.63;;;22.40;43.40;;;;;;4878047;29;46059;-71
2022/09/30 07:37:11;;;;;;;0.90;0.90;;;22.50;43.40;;;;;;4875715;29;45460;-66
2022/09/30 07:39:37;;;;;;;0.88;0.60;;;22.50;43.30;;;;;;4877604;29;45199;-66
2022/09/30 07:42:03;;;;;;;0.80;0.80;;;22.60;43.30;;;;;;4865125;29;46296;-68
2022/09/30 07:44:28;;;;;;;1.10;0.70;;;22.70;43.40;;;;;;4858150;29;45463;-65
2022/09/30 07:46:54;;;;;;;1.33;0.80;;;22.70;43.20;;;;;;4873321;29;45241;-67
2022/09/30 07:49:25;;;;;;;0.98;0.70;;;22.70;43.10;;;;;;4876651;29;45163;-72
2022/09/30 07:51:52;;;;;;;1.30;0.77;;;22.80;43.10;;;;;;4867755;29;46017;-69
2022/09/30 07:54:21;;;;;;;1.17;0.90;;;22.80;43.10;;;;;;4876812;29;45312;-67
2022/09/30 07:56:47;;;;;;;0.80;0.80;;;22.90;43.10;;;;;;4882000;29;44763;-68
2022/09/30 07:59:12;;;;;;;0.77;0.70;;;22.90;43.00;;;;;;4880505;29;45339;-67
2022/09/30 08:01:39;;;;;;;0.95;0.82;;;23.00;43.00;;;;;;4863630;29;47183;-63
2022/09/30 08:04:05;;;;;;;0.65;0.65;;;23.10;43.00;;;;;;4875980;29;45223;-68
2022/09/30 08:06:31;;;;;;;1.45;0.90;;;23.10;42.90;;;;;;4875081;29;45687;-66
2022/09/30 08:08:57;;;;;;;0.75;0.65;;;23.10;42.70;;;;;;4864517;29;45530;-67
2022/09/30 08:11:23;;;;;;;1.08;0.77;;;23.20;42.70;;;;;;4875990;29;44939;-72
2022/09/30 08:13:58;;;;;;;1.05;0.82;;;23.30;42.60;;;;;;4864346;29;44983;-67
2022/09/30 08:16:24;;;;;;;0.80;0.70;;;23.30;42.40;;;;;;4872274;29;45539;-67
2022/09/30 08:18:53;;;;;;;0.60;0.60;;;23.40;42.50;;;;;;4873543;29;45397;-67
2022/09/30 08:21:19;;;;;;;1.15;0.82;;;23.40;42.40;;;;;;4869770;29;46002;-65
2022/09/30 08:23:44;;;;;;;1.70;0.80;;;23.40;42.40;;;;;;4878978;29;44896;-66
2022/09/30 08:26:11;;;;;;;0.47;0.47;;;23.50;42.30;;;;;;4881460;29;44632;-70
2022/09/30 08:28:37;;;;;;;1.10;0.80;;;23.50;42.30;;;;;;4884047;29;45467;-66
2022/09/30 08:31:06;;;;;;;1.33;0.90;;;23.60;42.30;;;;;;4877794;29;47233;-68
2022/09/30 08:33:32;;;;;;;0.73;0.70;;;23.60;42.20;;;;;;4860302;29;46852;-64
2022/09/30 08:36:04;;;;;;;0.70;0.70;;;23.70;42.20;;;;;;4862843;29;45259;-66
2022/09/30 08:38:30;;;;;;;0.75;0.75;;;23.70;42.10;;;;;;4869465;29;45793;-63
2022/09/30 08:41:07;;;;;;;0.70;0.68;;;23.80;42.10;;;;;;4873146;29;45486;-64
2022/09/30 08:43:39;;;;;;;0.95;0.65;;;23.80;41.70;;;;;;4873090;29;45526;-63
2022/09/30 08:46:08;;;;;;;1.13;0.57;;;23.90;41.80;;;;;;4866857;29;45564;-62
2022/09/30 08:49:01;;;;;;;0.77;0.65;;;23.90;41.80;;;;;;4864639;29;45176;-63
2022/09/30 08:51:38;;;;;;;0.75;0.60;;;24.00;41.30;;;;;;4864021;29;47454;-63
2022/09/30 08:54:05;;;;;;;1.48;0.57;;;24.10;41.40;;;;;;4873916;29;45338;-63
2022/09/30 08:56:31;;;;;;;0.50;0.50;;;24.10;41.60;;;;;;4878803;29;45210;-62
2022/09/30 08:59:40;;;;;;;0.70;0.70;;;24.20;41.50;;;;;;4881004;29;47036;-64
2022/09/30 09:02:12;;;;;;;1.00;0.57;;;24.20;41.00;;;;;;4869096;29;45662;-64
2022/09/30 09:04:38;;;;;;;1.20;0.80;;;24.20;41.20;;;;;;4875241;29;45004;-63
2022/09/30 09:07:10;;;;;;;0.95;0.73;;;24.30;41.30;;;;;;4878968;29;45458;-64
2022/09/30 09:09:41;;;;;;;1.83;0.80;;;24.30;41.20;;;;;;4876151;29;45704;-64
2022/09/30 09:12:21;;;;;;;1.67;0.70;;;24.40;41.20;;;;;;4879447;29;45289;-63
2022/09/30 09:15:19;;;;;;;0.70;0.70;;;24.50;41.10;;;;;;4863350;29;45247;-63
2022/09/30 09:18:21;;;;;;;2.95;0.77;;;24.50;40.50;;;;;;4880211;29;45540;-63
2022/09/30 09:20:58;;;;;;;2.63;0.70;;;24.60;40.60;;;;;;4872784;29;45270;-63
2022/09/30 09:23:24;;;;;;;0.80;0.55;;;24.60;40.70;;;;;;4874526;29;45996;-62
2022/09/30 09:25:52;;;;;;;1.27;0.70;;;24.60;40.90;;;;;;4877683;29;45280;-64
2022/09/30 09:28:34;;;;;;;0.95;0.70;;;24.70;40.90;;;;;;4871925;29;45098;-64
2022/09/30 09:31:00;;;;;;;0.60;0.60;;;24.70;40.50;;;;;;4875031;29;45461;-63
2022/09/30 09:33:31;;;;;;;1.05;0.60;;;24.80;40.80;;;;;;4862401;29;45608;-63
2022/09/30 09:36:27;;;;;;;1.63;0.70;;;24.80;40.60;;;;;;4861289;29;45337;-64
2022/09/30 09:39:00;;;;;;;0.55;0.55;;;24.90;40.20;;;;;;4873303;29;45139;-62
2022/09/30 09:41:35;;;;;;;1.70;0.68;;;24.90;40.40;;;;;;4876407;29;45100;-63
2022/09/30 09:44:41;;;;;;;0.70;0.60;;;24.90;40.50;;;;;;4878011;29;46297;-62
2022/09/30 09:47:15;;;;;;;1.15;0.70;;;25.00;40.10;;;;;;4878413;29;45234;-64
2022/09/30 09:49:45;;;;;;;1.75;0.60;;;25.00;40.40;;;;;;4878347;29;45660;-63
2022/09/30 09:52:11;;;;;;;1.38;0.65;;;25.10;40.50;;;;;;4871957;29;45791;-62
2022/09/30 09:54:41;;;;;;;0.50;0.50;;;25.10;40.40;;;;;;4874653;29;45968;-63
2022/09/30 09:57:08;;;;;;;2.78;0.80;;;25.20;40.30;;;;;;4880504;29;45224;-63
2022/09/30 09:59:35;;;;;;;0.50;0.45;;;25.20;40.30;;;;;;4879104;29;45666;-62
2022/09/30 10:02:00;;;;;;;0.60;0.50;;;25.20;40.30;;;;;;4877733;29;45016;-62
2022/09/30 10:04:29;;;;;;;1.15;0.40;;;25.30;40.30;;;;;;4879710;29;46072;-63
2022/09/30 10:06:59;;;;;;;0.80;0.63;;;25.30;40.20;;;;;;4862004;29;45440;-62
2022/09/30 10:09:30;;;;;;;2.95;0.60;;;25.40;40.10;;;;;;4873767;29;45684;-64
2022/09/30 10:12:05;;;;;;;0.60;0.60;;;25.40;40.20;;;;;;4874145;29;45316;-63
2022/09/30 10:14:49;;;;;;;0.63;0.63;;;25.40;39.80;;;;;;4868535;29;46491;-63
2022/09/30 10:17:25;;;;;;;0.60;0.60;;;25.40;39.50;;;;;;4872039;29;45379;-63
2022/09/30 10:20:05;;;;;;;0.50;0.50;;;25.40;39.80;;;;;;4868531;29;45249;-63
2022/09/30 10:22:31;;;;;;;1.17;0.75;;;25.30;39.70;;;;;;4877864;29;45516;-64
2022/09/30 10:25:16;;;;;;;0.70;0.57;;;25.30;40.10;;;;;;4876225;29;45282;-63
2022/09/30 10:27:58;;;;;;;1.15;0.50;;;25.40;39.70;;;;;;4880563;29;45330;-63
2022/09/30 10:30:34;;;;;;;0.70;0.65;;;25.40;39.90;;;;;;4857317;29;45244;-64
2022/09/30 10:33:02;;;;;;;0.73;0.63;;;25.40;39.80;;;;;;4876239;29;45591;-64
2022/09/30 10:35:27;;;;;;;0.65;0.60;;;25.40;40.00;;;;;;4855083;29;47011;-63
2022/09/30 10:37:53;;;;;;;2.67;0.70;;;25.40;39.90;;;;;;4866157;29;45623;-63
2022/09/30 10:40:21;;;;;;;0.57;0.55;;;25.40;39.90;;;;;;4859541;29;44962;-64
2022/09/30 10:42:47;;;;;;;0.85;0.70;;;25.30;40.00;;;;;;4873179;29;46214;-64
2022/09/30 10:45:19;;;;;;;0.65;0.60;;;25.20;39.90;;;;;;4873255;29;46171;-63
2022/09/30 10:47:51;;;;;;;1.23;0.70;;;25.10;39.80;;;;;;4872968;29;45594;-64
2022/09/30 10:50:19;;;;;;;0.80;0.70;;;25.10;40.10;;;;;;4871615;29;45394;-63
2022/09/30 10:53:00;;;;;;;0.75;0.55;;;25.00;40.20;;;;;;4865226;29;45717;-64
2022/09/30 10:55:30;;;;;;;3.35;0.43;;;24.90;40.10;;;;;;4870994;29;46281;-64
2022/09/30 10:58:21;;;;;;;1.17;0.60;;;24.80;40.40;;;;;;4874023;29;45216;-66
2022/09/30 11:00:52;;;;;;;1.52;0.68;;;24.80;40.50;;;;;;4842625;29;45635;-67
2022/09/30 11:03:24;;;;;;;1.08;0.70;;;24.70;40.50;;;;;;4857151;29;46453;-68
2022/09/30 11:05:49;;;;;;;2.05;0.90;;;24.70;40.50;;;;;;4856813;29;46012;-67
2022/09/30 11:08:47;;;;;;;1.38;0.70;;;24.60;40.70;;;;;;4873298;29;46174;-68
2022/09/30 11:11:18;;;;;;;1.15;0.75;;;24.60;40.60;;;;;;4853956;29;45079;-67
2022/09/30 11:14:15;;;;;;;2.55;0.60;;;24.50;40.70;;;;;;4858821;29;45331;-68
2022/09/30 11:16:54;;;;;;;4.97;0.80;;;24.50;40.80;;;;;;4850322;29;46076;-67
2022/09/30 11:19:27;;;;;;;1.38;0.60;;;24.40;40.80;;;;;;4872840;29;46229;-67
2022/09/30 11:21:57;;;;;;;1.40;0.60;;;24.40;40.80;;;;;;4873849;29;45489;-69
2022/09/30 11:24:31;;;;;;;0.35;0.35;;;24.40;40.90;;;;;;4874199;29;45002;-67
2022/09/30 11:27:24;;;;;;;0.60;0.60;;;24.30;40.90;;;;;;4874628;29;45314;-64
2022/09/30 11:30:03;;;;;;;0.50;0.50;;;24.30;40.90;;;;;;4878694;29;45226;-65
2022/09/30 11:32:56;;;;;;;2.90;0.63;;;24.20;41.10;;;;;;4862064;29;45782;-66
2022/09/30 11:35:27;;;;;;;1.67;0.60;;;24.20;41.10;;;;;;4878902;29;45294;-69
2022/09/30 11:38:11;;;;;;;1.42;0.60;;;24.10;41.20;;;;;;4878266;29;45152;-69
2022/09/30 11:40:51;;;;;;;1.33;0.80;;;24.10;41.10;;;;;;4878964;29;45690;-66
2022/09/30 11:43:39;;;;;;;1.42;0.73;;;24.10;41.30;;;;;;4877183;29;46948;-67
2022/09/30 11:46:10;;;;;;;0.50;0.50;;;24.10;41.30;;;;;;4878028;29;44767;-70
2022/09/30 11:49:07;;;;;;;0.70;0.70;;;24.00;41.50;;;;;;4878256;29;46269;-69
2022/09/30 11:51:59;;;;;;;4.43;0.73;;;24.00;41.50;;;;;;4879159;29;45472;-69
2022/09/30 11:54:52;;;;;;;1.00;0.60;;;23.90;41.50;;;;;;4841161;29;45835;-69
2022/09/30 11:57:18;;;;;;;0.90;0.55;;;23.90;41.60;;;;;;4860838;29;45739;-69
2022/09/30 12:00:07;;;;;;;1.13;0.60;;;23.90;41.70;;;;;;4877859;29;45302;-66
2022/09/30 12:02:36;;;;;;;1.38;0.63;;;23.80;41.70;;;;;;4876499;29;46245;-73
2022/09/30 12:05:06;;;;;;;1.35;0.40;;;23.80;41.70;;;;;;4861243;29;45455;-69
2022/09/30 12:07:36;;;;;;;0.80;0.60;;;23.80;41.80;;;;;;4875945;29;45435;-67
2022/09/30 12:10:30;;;;;;;0.68;0.65;;;23.80;41.90;;;;;;4874844;29;45372;-65
2022/09/30 12:13:00;;;;;;;0.68;0.63;;;23.80;41.90;;;;;;4852127;29;45636;-66
2022/09/30 12:15:26;;;;;;;1.30;0.63;;;23.70;41.90;;;;;;4874196;29;45451;-67
2022/09/30 12:18:00;;;;;;;2.33;0.70;;;23.70;41.90;;;;;;4863862;29;45524;-68
2022/09/30 12:20:40;;;;;;;0.73;0.70;;;23.70;42.00;;;;;;4876583;29;47072;-66
2022/09/30 12:23:19;;;;;;;0.60;0.50;;;23.70;42.10;;;;;;4875873;29;45341;-70
2022/09/30 12:25:59;;;;;;;2.35;0.60;;;23.60;42.10;;;;;;4876687;29;45438;-67
2022/09/30 12:31:51;;;;;;;0.63;0.52;;;23.50;42.20;;;;;;4876615;29;45000;-68
2022/09/30 12:34:55;;;;;;;1.35;0.60;;;23.50;42.20;;;;;;4874862;29;45615;-69
2022/09/30 12:37:27;;;;;;;;;;;23.50;42.30;;;;;;4876889;29;45607;-69
2022/09/30 12:40:12;;;;;;;0.50;0.50;;;23.50;42.40;;;;;;4859109;29;45291;-68
2022/09/30 12:42:42;;;;;;;0.68;0.68;;;23.40;42.40;;;;;;4876027;29;45703;-67
2022/09/30 12:45:19;;;;;;;1.55;0.60;;;23.40;42.40;;;;;;4860331;29;45783;-67
2022/09/30 12:47:53;;;;;;;0.95;0.57;;;23.40;42.50;;;;;;4876406;29;45320;-67
2022/09/30 12:50:21;;;;;;;0.50;0.50;;;23.40;42.50;;;;;;4875294;29;44778;-66
2022/09/30 12:52:46;;;;;;;2.78;0.70;;;23.30;42.50;;;;;;4874806;29;46087;-65
2022/09/30 12:55:30;;;;;;;0.68;0.60;;;23.30;42.50;;;;;;4873734;29;45512;-64
2022/09/30 12:57:57;;;;;;;1.27;0.50;;;23.30;42.50;;;;;;4876776;29;44983;-66
2022/09/30 13:00:25;;;;;;;0.98;0.88;;;23.30;42.60;;;;;;4874184;29;45558;-66
2022/09/30 13:02:58;;;;;;;0.85;0.50;;;23.30;42.60;;;;;;4874636;29;46180;-68
2022/09/30 13:05:30;;;;;;;1.00;0.70;;;23.30;42.70;;;;;;4874710;29;45225;-68
2022/09/30 13:08:05;;;;;;;0.50;0.50;;;23.30;42.70;;;;;;4876634;29;46204;-69
2022/09/30 13:10:37;;;;;;;0.57;0.55;;;23.20;42.70;;;;;;4874531;29;44827;-67
2022/09/30 13:13:09;;;;;;;0.70;0.60;;;23.20;42.80;;;;;;4875287;29;45862;-69
2022/09/30 13:15:41;;;;;;;1.25;0.88;;;23.20;42.80;;;;;;4876232;29;45711;-68
2022/09/30 13:18:18;;;;;;;0.45;0.45;;;23.20;43.40;;;;;;4875872;29;45670;-68
2022/09/30 13:20:53;;;;;;;0.70;0.60;;;23.20;42.80;;;;;;4876731;29;45416;-66
2022/09/30 13:23:34;;;;;;;0.57;0.57;;;23.10;42.80;;;;;;4873025;29;46884;-70
2022/09/30 13:26:01;;;;;;;1.00;0.50;;;23.10;42.80;;;;;;4873848;29;45633;-68
2022/09/30 13:28:29;;;;;;;0.77;0.70;;;23.10;42.90;;;;;;4874524;29;45691;-69
2022/09/30 13:31:22;;;;;;;0.75;0.50;;;23.10;42.90;;;;;;4874890;29;45413;-67
2022/09/30 13:34:08;;;;;;;1.10;0.70;;;23.10;43.00;;;;;;4871630;29;46310;-67
2022/09/30 13:36:39;;;;;;;0.50;0.50;;;23.10;43.00;;;;;;4873284;29;45273;-68
2022/09/30 13:39:44;;;;;;;0.70;0.50;;;23.10;43.10;;;;;;4875182;29;45298;-68
2022/09/30 13:42:30;;;;;;;0.75;0.63;;;23.00;43.10;;;;;;4801567;29;45478;-68
2022/09/30 13:45:09;;;;;;;0.63;0.52;;;23.00;43.20;;;;;;4856302;29;45890;-69
2022/09/30 13:48:06;;;;;;;0.60;0.60;;;23.00;43.10;;;;;;4857626;29;45924;-67
2022/09/30 13:50:35;;;;;;;0.88;0.60;;;23.00;43.10;;;;;;4874012;29;45046;-69
2022/09/30 13:53:05;;;;;;;0.85;0.60;;;22.90;43.10;;;;;;4873599;29;45748;-67
2022/09/30 13:55:37;;;;;;;2.17;1.00;;;23.00;43.20;;;;;;4858730;29;46230;-68
2022/09/30 13:58:38;;;;;;;0.43;0.40;;;22.90;43.20;;;;;;4872428;29;45703;-69
2022/09/30 14:01:34;;;;;;;0.95;0.80;;;22.90;43.30;;;;;;4871461;29;45108;-70
2022/09/30 14:04:36;;;;;;;0.43;0.40;;;22.90;43.30;;;;;;4875009;29;44870;-68
2022/09/30 14:07:15;;;;;;;2.22;0.60;;;22.90;43.40;;;;;;4857101;29;46253;-71
2022/09/30 14:10:14;;;;;;;1.02;0.65;;;22.90;43.40;;;;;;4873153;29;45334;-70
2022/09/30 14:12:43;;;;;;;0.45;0.45;;;22.90;43.40;;;;;;4875134;29;46345;-66
2022/09/30 14:15:24;;;;;;;1.23;0.55;;;22.90;43.40;;;;;;4875225;29;46304;-66
2022/09/30 14:18:10;;;;;;;1.60;0.70;;;22.80;43.40;;;;;;4874330;29;45492;-70
2022/09/30 14:21:16;;;;;;;1.02;0.50;;;22.90;43.50;;;;;;4876181;29;45591;-68
2022/09/30 14:23:43;;;;;;;0.73;0.68;;;22.80;43.50;;;;;;4874431;29;45366;-68
2022/09/30 14:26:27;;;;;;;0.60;0.60;;;22.80;43.50;;;;;;4875150;29;45791;-69
2022/09/30 14:29:13;;;;;;;0.60;0.60;;;22.80;43.60;;;;;;4872079;29;46170;-68
2022/09/30 14:31:43;;;;;;;1.17;0.60;;;22.80;43.60;;;;;;4857664;29;45308;-72
2022/09/30 14:34:10;;;;;;;1.20;0.60;;;22.80;43.60;;;;;;4859070;29;45642;-69
2022/09/30 14:36:36;;;;;;;0.98;0.68;;;22.80;43.60;;;;;;4856907;29;45338;-69
2022/09/30 14:39:01;;;;;;;1.20;0.68;;;22.70;43.50;;;;;;4871129;29;45882;-66
2022/09/30 14:41:28;;;;;;;1.00;0.70;;;22.70;43.60;;;;;;4873495;29;45028;-66
2022/09/30 14:43:56;;;;;;;2.25;0.80;;;22.70;43.60;;;;;;4862379;29;44917;-67
2022/09/30 14:46:32;;;;;;;0.70;0.70;;;22.70;43.60;;;;;;4857728;29;45247;-67
2022/09/30 14:49:00;;;;;;;0.90;0.47;;;22.70;43.60;;;;;;4874384;29;45711;-67
2022/09/30 14:51:26;;;;;;;0.60;0.60;;;22.70;43.70;;;;;;4874412;29;45278;-69
2022/09/30 14:54:01;;;;;;;0.50;0.50;;;22.70;43.70;;;;;;4874088;29;45887;-67
2022/09/30 14:56:29;;;;;;;0.50;0.50;;;22.70;43.70;;;;;;4873316;29;45918;-68
2022/09/30 14:58:58;;;;;;;0.43;0.43;;;22.70;43.80;;;;;;4868898;29;45377;-67
2022/09/30 15:01:24;;;;;;;0.75;0.65;;;22.60;43.80;;;;;;4852533;29;46341;-68
2022/09/30 15:03:58;;;;;;;0.85;0.68;;;22.70;43.90;;;;;;4873177;29;45687;-68
2022/09/30 15:06:29;;;;;;;0.88;0.50;;;22.70;43.90;;;;;;4874771;29;45310;-71
2022/09/30 15:09:04;;;;;;;1.58;0.50;;;22.60;43.80;;;;;;4857426;29;46081;-69
2022/09/30 15:11:31;;;;;;;1.00;0.47;;;22.60;43.90;;;;;;4873840;29;46275;-70
2022/09/30 15:13:59;;;;;;;1.10;0.70;;;22.60;44.00;;;;;;4874877;29;45625;-68
2022/09/30 15:16:26;;;;;;;0.82;0.50;;;22.50;44.00;;;;;;4876290;29;45646;-69
2022/09/30 15:18:52;;;;;;;0.70;0.60;;;22.60;44.00;;;;;;4875891;29;45761;-68
2022/09/30 15:21:18;;;;;;;0.50;0.50;;;22.60;44.10;;;;;;4860462;29;45235;-68
2022/09/30 15:23:46;;;;;;;0.60;0.60;;;22.50;44.10;;;;;;4876031;29;45753;-71
2022/09/30 15:26:12;;;;;;;0.50;0.50;;;22.50;44.10;;;;;;4861483;29;44951;-68
2022/09/30 15:28:38;;;;;;;0.93;0.70;;;22.50;44.10;;;;;;4866850;29;45581;-69
2022/09/30 15:31:04;;;;;;;0.60;0.60;;;22.50;44.20;;;;;;4854744;29;45694;-69
2022/09/30 15:33:33;;;;;;;0.50;0.50;;;22.50;44.20;;;;;;4859285;29;45360;-69
2022/09/30 15:36:25;;;;;;;0.47;0.47;;;22.40;44.30;;;;;;4876459;29;46001;-68
2022/09/30 15:38:51;;;;;;;0.68;0.43;;;22.40;44.40;;;;;;4853649;29;45643;-68
2022/09/30 15:41:16;;;;;;;0.55;0.50;;;22.40;44.30;;;;;;4874469;29;45469;-69
2022/09/30 15:43:50;;;;;;;0.50;0.45;;;22.40;44.30;;;;;;4875423;29;45425;-69
2022/09/30 15:46:21;;;;;;;0.57;0.57;;;22.40;44.30;;;;;;4876383;29;45400;-69
2022/09/30 15:48:47;;;;;;;0.93;0.73;;;22.40;44.30;;;;;;4874019;29;46082;-69
2022/09/30 15:51:25;;;;;;;0.57;0.40;;;22.40;44.30;;;;;;4875486;29;45027;-70
2022/09/30 15:53:51;;;;;;;0.60;0.60;;;22.30;44.30;;;;;;4877080;29;44730;-69
2022/09/30 15:56:26;;;;;;;0.40;0.40;;;22.30;44.20;;;;;;4859493;29;45737;-69
2022/09/30 15:58:55;;;;;;;0.50;0.50;;;22.30;44.80;;;;;;4876014;29;46277;-68
2022/09/30 16:01:33;;;;;;;0.75;0.43;;;22.30;44.90;;;;;;4874324;29;45748;-69
2022/09/30 16:04:01;;;;;;;0.73;0.63;;;22.30;44.20;;;;;;4870608;29;49001;-69
2022/09/30 16:06:33;;;;;;;0.40;0.40;;;22.20;44.20;;;;;;4866054;29;45105;-70
2022/09/30 16:09:21;;;;;;;0.93;0.63;;;22.20;44.40;;;;;;4857621;29;45223;-69
2022/09/30 16:12:01;;;;;;;0.60;0.50;;;22.20;44.40;;;;;;4847587;29;45766;-69
2022/09/30 16:14:32;;;;;;;1.20;0.70;;;22.20;44.30;;;;;;4875586;29;45423;-69
2022/09/30 16:16:59;;;;;;;0.45;0.45;;;22.20;44.30;;;;;;4874652;29;45825;-70
2022/09/30 16:19:26;;;;;;;0.60;0.57;;;22.10;44.30;;;;;;4852315;29;46915;-68